Time;durP1;ratioP1;P1;durP2;ratioP2;P2;SDS_P1;SDS_P2;PMS_P1;PMS_P2;Temp;Humidity;BMP_temperature;BMP_pressure;BME280_temperature;BME280_humidity;BME280_pressure;Samples;Min_cycle;Max_cycle;Signal;HPM_P1;HPM_P2
2023/04/20 00:00:22;;;;;;;21.03;13.80;;;5.80;70.10;;;;;;5052317;28;45795;-67
2023/04/20 00:02:47;;;;;;;17.30;11.87;;;5.80;70.10;;;;;;5054925;28;46407;-66
2023/04/20 00:05:13;;;;;;;19.60;12.80;;;5.80;69.90;;;;;;5053798;28;46478;-66
2023/04/20 00:07:40;;;;;;;21.47;12.13;;;5.80;69.80;;;;;;5044122;28;46438;-67
2023/04/20 00:10:06;;;;;;;17.57;12.67;;;5.80;69.90;;;;;;5037644;28;46414;-67
2023/04/20 00:12:32;;;;;;;19.43;13.10;;;5.80;69.90;;;;;;5041526;28;46773;-67
2023/04/20 00:14:58;;;;;;;18.50;11.63;;;5.80;69.90;;;;;;5042303;28;46137;-66
2023/04/20 00:17:24;;;;;;;21.23;11.40;;;5.80;69.80;;;;;;5038297;28;46374;-67
2023/04/20 00:19:49;;;;;;;26.13;13.83;;;5.80;70.10;;;;;;5040199;28;46444;-66
2023/04/20 00:22:15;;;;;;;16.50;11.47;;;5.80;70.00;;;;;;5040053;28;46790;-67
2023/04/20 00:24:41;;;;;;;20.13;11.77;;;5.90;70.00;;;;;;5039189;28;46487;-67
2023/04/20 00:27:06;;;;;;;19.13;11.63;;;5.90;69.60;;;;;;5040675;28;46465;-67
2023/04/20 00:29:32;;;;;;;18.60;12.90;;;5.90;69.40;;;;;;5039748;28;46433;-67
2023/04/20 00:31:58;;;;;;;20.70;12.47;;;5.90;69.50;;;;;;5037206;28;46560;-66
2023/04/20 00:34:23;;;;;;;19.40;12.80;;;5.90;69.50;;;;;;5040891;28;46434;-66
2023/04/20 00:36:49;;;;;;;22.37;12.00;;;5.90;69.40;;;;;;5037056;28;46670;-64
2023/04/20 00:39:15;;;;;;;21.00;12.83;;;6.00;69.40;;;;;;5038983;28;46501;-63
2023/04/20 00:41:40;;;;;;;18.50;12.07;;;5.90;69.60;;;;;;5038912;28;46459;-68
2023/04/20 00:44:10;;;;;;;17.30;11.97;;;6.00;69.70;;;;;;5038333;28;46411;-66
2023/04/20 00:46:35;;;;;;;16.67;11.30;;;5.90;69.40;;;;;;5037908;28;46431;-66
2023/04/20 00:49:01;;;;;;;19.50;12.63;;;6.00;69.10;;;;;;5040563;28;45813;-65
2023/04/20 00:51:28;;;;;;;26.83;13.70;;;6.00;69.20;;;;;;5041018;28;45891;-66
2023/04/20 00:53:53;;;;;;;18.47;13.10;;;5.90;69.30;;;;;;5040063;28;47178;-66
2023/04/20 00:56:19;;;;;;;21.93;13.73;;;5.80;69.40;;;;;;5038767;28;46509;-66
2023/04/20 00:58:45;;;;;;;19.93;13.37;;;5.80;69.70;;;;;;5037888;28;46425;-67
2023/04/20 01:01:11;;;;;;;19.73;13.17;;;5.80;69.90;;;;;;5038008;28;46358;-64
2023/04/20 01:03:38;;;;;;;20.87;13.10;;;5.80;69.80;;;;;;5039037;28;46358;-66
2023/04/20 01:06:05;;;;;;;23.93;14.03;;;5.80;70.00;;;;;;5039399;28;46621;-67
2023/04/20 01:08:30;;;;;;;24.27;13.77;;;5.80;70.00;;;;;;5041370;28;46548;-65
2023/04/20 01:10:56;;;;;;;23.53;13.73;;;5.80;69.70;;;;;;5039890;28;46334;-66
2023/04/20 01:13:22;;;;;;;24.17;13.93;;;5.80;69.60;;;;;;5040000;28;46389;-66
2023/04/20 01:15:48;;;;;;;23.40;15.50;;;5.80;69.50;;;;;;5038908;28;46497;-66
2023/04/20 01:18:14;;;;;;;23.57;15.27;;;5.80;69.60;;;;;;5038304;28;46216;-65
2023/04/20 01:20:40;;;;;;;27.07;16.80;;;5.80;70.80;;;;;;5036589;28;46601;-65
2023/04/20 01:23:05;;;;;;;25.17;16.87;;;5.80;69.80;;;;;;5041152;28;46182;-65
2023/04/20 01:25:31;;;;;;;24.60;16.57;;;5.70;69.90;;;;;;5036559;28;46549;-66
2023/04/20 01:27:56;;;;;;;29.00;16.77;;;5.70;69.90;;;;;;5039940;28;46094;-66
2023/04/20 01:30:22;;;;;;;30.13;17.17;;;5.80;69.60;;;;;;5037728;28;46439;-66
2023/04/20 01:32:48;;;;;;;29.00;18.57;;;5.70;70.00;;;;;;5040365;28;46477;-64
2023/04/20 01:35:14;;;;;;;29.80;17.80;;;5.70;70.20;;;;;;5038145;28;46827;-66
2023/04/20 01:37:41;;;;;;;37.77;20.37;;;5.70;70.00;;;;;;5039879;28;45767;-66
2023/04/20 01:40:12;;;;;;;34.83;19.80;;;5.70;69.80;;;;;;5050165;28;46655;-67
2023/04/20 01:42:38;;;;;;;29.17;17.97;;;5.70;69.80;;;;;;5037441;28;46643;-66
2023/04/20 01:45:05;;;;;;;26.97;16.70;;;5.70;69.80;;;;;;5038081;28;46470;-66
2023/04/20 01:47:31;;;;;;;32.10;18.07;;;5.60;70.00;;;;;;5039074;28;46369;-66
2023/04/20 01:49:57;;;;;;;29.03;17.87;;;5.60;70.30;;;;;;5039546;28;46533;-66
2023/04/20 01:52:22;;;;;;;27.07;16.77;;;5.50;70.50;;;;;;5038414;28;47163;-65
2023/04/20 01:54:48;;;;;;;32.57;17.90;;;5.60;70.50;;;;;;5036501;28;46435;-66
2023/04/20 01:57:14;;;;;;;26.03;16.80;;;5.60;70.40;;;;;;5040322;28;46390;-66
2023/04/20 01:59:39;;;;;;;31.53;17.07;;;5.60;70.30;;;;;;5038106;28;46767;-65
2023/04/20 02:02:05;;;;;;;29.27;17.20;;;5.70;70.20;;;;;;5034503;28;47101;-65
2023/04/20 02:04:31;;;;;;;30.83;18.37;;;5.70;70.30;;;;;;5037484;28;46387;-65
2023/04/20 02:06:56;;;;;;;33.03;17.60;;;5.70;70.10;;;;;;5041600;28;46370;-65
2023/04/20 02:09:22;;;;;;;32.77;18.70;;;5.70;70.20;;;;;;5037291;28;46517;-65
2023/04/20 02:11:48;;;;;;;35.37;18.40;;;5.70;70.20;;;;;;5037804;28;46549;-66
2023/04/20 02:14:13;;;;;;;32.20;18.30;;;5.70;70.00;;;;;;5033063;28;46425;-66
2023/04/20 02:16:40;;;;;;;32.20;18.50;;;5.80;69.80;;;;;;5037426;28;46378;-65
2023/04/20 02:19:05;;;;;;;30.97;19.47;;;5.90;69.50;;;;;;5039460;28;46409;-66
2023/04/20 02:21:31;;;;;;;32.90;18.80;;;5.90;69.50;;;;;;5035940;28;45912;-66
2023/04/20 02:23:57;;;;;;;31.40;18.77;;;5.90;69.60;;;;;;5038563;28;46469;-65
2023/04/20 02:26:22;;;;;;;29.93;18.40;;;5.90;69.70;;;;;;5038922;28;46472;-66
2023/04/20 02:28:48;;;;;;;29.17;17.30;;;5.90;69.60;;;;;;5039275;28;46564;-65
2023/04/20 02:31:13;;;;;;;28.77;17.60;;;5.90;69.90;;;;;;5036604;28;46392;-66
2023/04/20 02:33:39;;;;;;;30.80;18.63;;;5.80;70.10;;;;;;5039578;28;46335;-66
2023/04/20 02:36:05;;;;;;;33.60;18.90;;;5.80;70.40;;;;;;5033997;28;46330;-66
2023/04/20 02:38:31;;;;;;;34.77;20.00;;;5.70;70.50;;;;;;5039217;28;46635;-66
2023/04/20 02:40:56;;;;;;;31.60;18.03;;;5.70;70.50;;;;;;5036621;28;46397;-66
2023/04/20 02:43:22;;;;;;;30.53;19.23;;;5.70;70.50;;;;;;5038285;28;46473;-66
2023/04/20 02:45:48;;;;;;;33.93;19.33;;;5.80;70.40;;;;;;5039401;28;46481;-66
2023/04/20 02:48:13;;;;;;;29.17;17.90;;;5.80;70.00;;;;;;5040845;28;46444;-66
2023/04/20 02:50:41;;;;;;;29.97;17.17;;;5.80;70.00;;;;;;5041689;28;46038;-65
2023/04/20 02:53:06;;;;;;;29.57;18.70;;;5.80;70.00;;;;;;5048959;28;46425;-66
2023/04/20 02:55:32;;;;;;;28.27;18.10;;;5.90;70.00;;;;;;5037193;28;46418;-65
2023/04/20 02:57:57;;;;;;;32.00;18.40;;;5.90;70.00;;;;;;5037071;28;46354;-65
2023/04/20 03:00:23;;;;;;;31.90;18.33;;;5.90;69.80;;;;;;5036501;28;46369;-65
2023/04/20 03:02:49;;;;;;;29.80;19.10;;;5.90;69.90;;;;;;5040038;28;46282;-65
2023/04/20 03:05:15;;;;;;;31.40;19.37;;;5.80;70.10;;;;;;5034455;28;46407;-66
2023/04/20 03:07:41;;;;;;;28.50;17.37;;;5.90;70.20;;;;;;5039433;28;46590;-67
2023/04/20 03:10:07;;;;;;;33.13;18.00;;;5.90;70.00;;;;;;5038590;28;47273;-66
2023/04/20 03:12:33;;;;;;;32.73;18.60;;;5.90;70.10;;;;;;5039161;28;46449;-66
2023/04/20 03:14:59;;;;;;;33.43;19.80;;;5.90;70.00;;;;;;5036098;28;46427;-66
2023/04/20 03:17:24;;;;;;;32.40;19.60;;;5.90;70.00;;;;;;5037316;28;46498;-66
2023/04/20 03:19:50;;;;;;;36.47;19.53;;;5.90;70.10;;;;;;5033902;28;49134;-66
2023/04/20 03:22:18;;;;;;;29.10;18.97;;;5.90;70.30;;;;;;5036503;28;46485;-66
2023/04/20 03:24:44;;;;;;;33.90;21.20;;;5.80;70.30;;;;;;5036315;28;46453;-66
2023/04/20 03:27:09;;;;;;;33.87;21.23;;;5.90;70.30;;;;;;5035923;28;46457;-66
2023/04/20 03:29:35;;;;;;;31.10;20.13;;;5.90;70.30;;;;;;5036581;28;49373;-66
2023/04/20 03:32:01;;;;;;;33.13;20.03;;;5.90;70.20;;;;;;5038044;28;46369;-66
2023/04/20 03:34:26;;;;;;;31.97;20.13;;;5.90;69.90;;;;;;5040751;28;46427;-66
2023/04/20 03:36:52;;;;;;;36.20;20.00;;;5.90;70.10;;;;;;5045671;28;46640;-66
2023/04/20 03:39:17;;;;;;;33.30;20.77;;;5.90;70.30;;;;;;5035568;28;47106;-66
2023/04/20 03:41:43;;;;;;;31.87;19.53;;;5.90;70.30;;;;;;5036309;28;46417;-66
2023/04/20 03:44:09;;;;;;;36.30;20.50;;;5.90;70.30;;;;;;5041496;28;46435;-65
2023/04/20 03:46:35;;;;;;;33.10;21.10;;;5.90;70.50;;;;;;5040078;28;46657;-66
2023/04/20 03:49:00;;;;;;;39.00;21.20;;;5.90;70.60;;;;;;5037504;28;46429;-66
2023/04/20 03:51:26;;;;;;;33.60;20.50;;;5.80;70.80;;;;;;5039041;28;46331;-66
2023/04/20 03:53:52;;;;;;;39.47;22.57;;;5.80;72.40;;;;;;5041790;28;46228;-65
2023/04/20 03:56:17;;;;;;;34.57;20.57;;;5.80;71.50;;;;;;5039638;28;46538;-66
2023/04/20 03:58:43;;;;;;;34.83;21.30;;;5.70;71.60;;;;;;5039660;28;46501;-67
2023/04/20 04:01:09;;;;;;;33.93;21.53;;;5.70;72.00;;;;;;5035880;28;46432;-66
2023/04/20 04:03:35;;;;;;;39.83;22.37;;;5.60;72.30;;;;;;5041341;28;46441;-66
2023/04/20 04:06:02;;;;;;;35.70;21.93;;;5.60;72.30;;;;;;5037196;28;46449;-66
2023/04/20 04:08:27;;;;;;;34.50;21.07;;;5.70;72.30;;;;;;5039728;28;48586;-64
2023/04/20 04:10:53;;;;;;;32.00;20.47;;;5.70;72.30;;;;;;5035141;28;46433;-66
2023/04/20 04:13:19;;;;;;;34.30;20.93;;;5.60;72.20;;;;;;5040563;28;46489;-66
2023/04/20 04:15:45;;;;;;;35.43;20.57;;;5.70;72.30;;;;;;5040871;28;46334;-66
2023/04/20 04:18:10;;;;;;;34.93;21.70;;;5.70;72.30;;;;;;5040988;28;47993;-66
2023/04/20 04:20:36;;;;;;;32.93;19.80;;;5.70;72.10;;;;;;5037789;28;46483;-66
2023/04/20 04:23:02;;;;;;;32.10;19.10;;;5.80;72.10;;;;;;5040614;28;46397;-65
2023/04/20 04:25:28;;;;;;;35.13;20.50;;;5.70;72.00;;;;;;5038105;28;46581;-64
2023/04/20 04:27:54;;;;;;;29.70;18.30;;;5.80;72.20;;;;;;5039508;28;46388;-66
2023/04/20 04:30:19;;;;;;;32.73;19.00;;;5.80;72.10;;;;;;5040002;28;46930;-66
2023/04/20 04:32:45;;;;;;;30.97;18.47;;;5.80;71.90;;;;;;5041812;28;46411;-66
2023/04/20 04:35:12;;;;;;;32.70;19.10;;;5.80;71.80;;;;;;5041059;28;46385;-66
2023/04/20 04:37:37;;;;;;;24.03;15.83;;;5.90;71.90;;;;;;5040729;28;46270;-66
2023/04/20 04:40:06;;;;;;;25.13;15.30;;;5.80;71.90;;;;;;5038367;28;46516;-66
2023/04/20 04:42:33;;;;;;;24.93;16.33;;;5.80;71.90;;;;;;5040723;28;46286;-66
2023/04/20 04:45:01;;;;;;;25.90;15.37;;;5.90;71.90;;;;;;5041037;28;46611;-65
2023/04/20 04:47:30;;;;;;;22.20;15.00;;;5.90;71.90;;;;;;5040285;28;46495;-66
2023/04/20 04:49:55;;;;;;;20.47;13.47;;;5.90;71.90;;;;;;5039075;28;46219;-66
2023/04/20 04:52:21;;;;;;;21.03;12.57;;;5.90;71.90;;;;;;5041496;28;46351;-66
2023/04/20 04:54:48;;;;;;;16.87;10.90;;;5.90;72.10;;;;;;5045351;28;46272;-66
2023/04/20 04:57:13;;;;;;;15.40;10.10;;;5.80;72.10;;;;;;5041666;28;47138;-65
2023/04/20 04:59:39;;;;;;;14.13;9.60;;;5.70;72.10;;;;;;5038328;28;46283;-66
2023/04/20 05:02:05;;;;;;;18.67;10.50;;;5.70;72.40;;;;;;5040850;28;46428;-66
2023/04/20 05:04:30;;;;;;;14.20;9.27;;;5.70;72.40;;;;;;5040462;28;45862;-65
2023/04/20 05:06:56;;;;;;;13.20;8.70;;;5.80;72.30;;;;;;5040477;28;48314;-65
2023/04/20 05:09:22;;;;;;;13.23;9.33;;;5.80;72.20;;;;;;5037660;28;45750;-65
2023/04/20 05:11:47;;;;;;;16.23;10.70;;;5.80;72.10;;;;;;5039256;28;46561;-66
2023/04/20 05:14:13;;;;;;;17.50;10.87;;;5.90;71.80;;;;;;5036115;28;46378;-65
2023/04/20 05:16:38;;;;;;;15.03;8.90;;;6.00;71.20;;;;;;5039106;28;47038;-66
2023/04/20 05:19:04;;;;;;;18.57;10.00;;;6.00;71.10;;;;;;5038258;28;46429;-66
2023/04/20 05:21:29;;;;;;;16.23;10.40;;;6.10;71.30;;;;;;5036545;28;46452;-66
2023/04/20 05:23:55;;;;;;;15.33;9.77;;;6.00;71.10;;;;;;5038841;28;46646;-66
2023/04/20 05:26:21;;;;;;;14.00;10.07;;;6.10;71.20;;;;;;5037868;28;46303;-66
2023/04/20 05:28:46;;;;;;;14.47;9.57;;;6.00;71.10;;;;;;5042218;28;46358;-66
2023/04/20 05:31:12;;;;;;;15.17;9.40;;;6.10;71.10;;;;;;5044343;28;46536;-65
2023/04/20 05:33:38;;;;;;;16.97;10.10;;;6.00;71.30;;;;;;5038763;28;46279;-65
2023/04/20 05:36:08;;;;;;;14.37;9.83;;;6.00;71.40;;;;;;5039998;28;46298;-65
2023/04/20 05:38:33;;;;;;;16.33;9.97;;;6.00;71.20;;;;;;5038692;28;45893;-65
2023/04/20 05:40:59;;;;;;;15.50;10.20;;;6.00;71.10;;;;;;5038199;28;46566;-65
2023/04/20 05:43:24;;;;;;;17.27;11.33;;;6.10;71.10;;;;;;5036445;28;46572;-67
2023/04/20 05:45:50;;;;;;;17.80;9.93;;;6.10;71.10;;;;;;5039054;28;46766;-66
2023/04/20 05:48:15;;;;;;;17.00;11.07;;;6.30;71.10;;;;;;5039175;28;45907;-66
2023/04/20 05:50:41;;;;;;;15.83;10.60;;;6.20;70.80;;;;;;5038047;28;45884;-65
2023/04/20 05:53:06;;;;;;;14.10;10.17;;;6.30;70.60;;;;;;5037051;28;46454;-67
2023/04/20 05:55:32;;;;;;;15.00;10.17;;;6.20;70.50;;;;;;5037959;28;46631;-66
2023/04/20 05:57:58;;;;;;;17.80;10.67;;;6.20;70.70;;;;;;5039775;28;46510;-66
2023/04/20 06:00:24;;;;;;;17.47;11.60;;;6.30;70.60;;;;;;5035670;28;46342;-65
2023/04/20 06:02:49;;;;;;;18.77;11.70;;;6.30;70.60;;;;;;5039105;28;46403;-66
2023/04/20 06:05:15;;;;;;;16.07;10.00;;;6.30;70.60;;;;;;5034855;28;46381;-67
2023/04/20 06:07:41;;;;;;;18.93;11.10;;;6.30;70.60;;;;;;5036638;28;46488;-66
2023/04/20 06:10:07;;;;;;;19.10;10.70;;;6.40;70.60;;;;;;5038692;28;46373;-67
2023/04/20 06:12:33;;;;;;;16.57;9.60;;;6.40;70.50;;;;;;5040246;28;46370;-66
2023/04/20 06:14:59;;;;;;;13.30;8.70;;;6.40;70.50;;;;;;5038471;28;46469;-66
2023/04/20 06:17:24;;;;;;;11.70;8.30;;;6.40;70.50;;;;;;5036300;28;46571;-65
2023/04/20 06:19:50;;;;;;;12.97;8.47;;;6.40;70.50;;;;;;5031251;28;46280;-66
2023/04/20 06:22:16;;;;;;;9.90;6.73;;;6.50;70.20;;;;;;5038827;28;46377;-67
2023/04/20 06:24:42;;;;;;;11.67;6.60;;;6.60;70.20;;;;;;5036816;28;46741;-68
2023/04/20 06:27:08;;;;;;;9.43;6.23;;;6.60;70.00;;;;;;5033996;28;45787;-65
2023/04/20 06:29:34;;;;;;;9.60;6.60;;;6.60;69.70;;;;;;5031612;28;46446;-67
2023/04/20 06:32:00;;;;;;;10.40;6.50;;;6.50;69.70;;;;;;5035598;28;46373;-65
2023/04/20 06:34:25;;;;;;;10.00;6.83;;;6.60;69.90;;;;;;5034221;28;47303;-67
2023/04/20 06:36:51;;;;;;;9.07;6.20;;;6.60;69.40;;;;;;5036138;28;46491;-67
2023/04/20 06:39:17;;;;;;;8.70;6.37;;;6.60;69.50;;;;;;5036246;28;46568;-67
2023/04/20 06:41:43;;;;;;;12.13;7.93;;;6.60;69.40;;;;;;5039552;28;46709;-66
2023/04/20 06:44:08;;;;;;;11.83;8.43;;;6.60;69.50;;;;;;5036034;28;47294;-66
2023/04/20 06:46:34;;;;;;;8.40;6.77;;;6.70;69.30;;;;;;5036310;28;46502;-65
2023/04/20 06:49:00;;;;;;;9.20;6.20;;;6.60;69.20;;;;;;5034643;28;46725;-65
2023/04/20 06:51:26;;;;;;;11.77;7.63;;;6.60;69.30;;;;;;5034996;28;46430;-65
2023/04/20 06:53:53;;;;;;;9.43;6.40;;;6.60;69.30;;;;;;5036483;28;47077;-65
2023/04/20 06:56:18;;;;;;;9.27;6.10;;;6.50;69.30;;;;;;5035577;28;46422;-64
2023/04/20 06:58:44;;;;;;;8.70;6.13;;;6.50;69.70;;;;;;5036193;28;46592;-65
2023/04/20 07:01:10;;;;;;;9.23;6.30;;;6.50;69.70;;;;;;5036404;28;45996;-65
2023/04/20 07:03:36;;;;;;;7.53;4.83;;;6.50;69.50;;;;;;5038477;28;46532;-67
2023/04/20 07:06:02;;;;;;;9.27;5.90;;;6.50;69.30;;;;;;5036535;28;45930;-66
2023/04/20 07:08:28;;;;;;;7.60;5.70;;;6.60;69.30;;;;;;5035954;28;46512;-67
2023/04/20 07:10:53;;;;;;;8.50;5.97;;;6.70;69.00;;;;;;5037428;28;46461;-64
2023/04/20 07:13:19;;;;;;;9.23;6.87;;;6.70;69.00;;;;;;5033335;28;46993;-63
2023/04/20 07:15:45;;;;;;;10.70;6.23;;;6.70;68.80;;;;;;5039686;28;46461;-65
2023/04/20 07:18:11;;;;;;;8.90;6.20;;;6.60;68.90;;;;;;5036354;28;46365;-65
2023/04/20 07:20:36;;;;;;;8.40;6.17;;;6.40;69.00;;;;;;5038242;28;46114;-65
2023/04/20 07:23:02;;;;;;;7.10;6.07;;;6.40;69.50;;;;;;5041535;28;46263;-65
2023/04/20 07:25:30;;;;;;;7.83;6.20;;;6.40;69.70;;;;;;5039665;28;46437;-65
2023/04/20 07:27:56;;;;;;;8.70;6.13;;;6.40;69.70;;;;;;5039162;28;45899;-64
2023/04/20 07:30:22;;;;;;;8.00;6.13;;;6.50;69.60;;;;;;5045747;28;46558;-65
2023/04/20 07:32:48;;;;;;;8.60;6.23;;;6.60;69.30;;;;;;5044263;28;46378;-64
2023/04/20 07:35:13;;;;;;;6.67;5.37;;;6.60;69.10;;;;;;5040764;28;46708;-65
2023/04/20 07:37:39;;;;;;;7.23;5.27;;;6.60;68.90;;;;;;5040377;28;46720;-65
2023/04/20 07:40:05;;;;;;;7.67;5.00;;;6.60;69.00;;;;;;5039299;28;46492;-64
2023/04/20 07:42:33;;;;;;;7.37;5.50;;;6.50;69.00;;;;;;5035688;28;47806;-64
2023/04/20 07:44:58;;;;;;;7.00;5.03;;;6.60;69.10;;;;;;5034840;28;46344;-65
2023/04/20 07:47:24;;;;;;;6.97;4.60;;;6.50;68.90;;;;;;5039068;28;46384;-63
2023/04/20 07:49:50;;;;;;;7.23;5.07;;;6.40;69.20;;;;;;5037645;28;46383;-66
2023/04/20 07:52:17;;;;;;;7.50;4.40;;;6.40;69.20;;;;;;5038074;28;47778;-64
2023/04/20 07:54:45;;;;;;;5.73;4.27;;;6.40;69.10;;;;;;5039010;28;46384;-66
2023/04/20 07:57:11;;;;;;;4.97;3.47;;;6.40;69.00;;;;;;5038117;28;46480;-65
2023/04/20 07:59:38;;;;;;;5.93;4.00;;;6.30;68.90;;;;;;5037264;28;46744;-64
2023/04/20 08:02:03;;;;;;;5.30;4.03;;;6.20;69.00;;;;;;5036305;28;46532;-68
2023/04/20 08:04:29;;;;;;;8.10;4.83;;;6.20;68.90;;;;;;5040091;28;46452;-64
2023/04/20 08:06:55;;;;;;;6.10;4.57;;;6.30;68.50;;;;;;5039291;28;46618;-64
2023/04/20 08:09:20;;;;;;;5.03;4.00;;;6.40;68.40;;;;;;5038720;28;45908;-67
2023/04/20 08:11:47;;;;;;;7.40;5.00;;;6.40;67.90;;;;;;5038226;28;46467;-66
2023/04/20 08:14:13;;;;;;;8.27;5.43;;;6.40;68.00;;;;;;5039717;28;46345;-66
2023/04/20 08:16:39;;;;;;;6.47;4.90;;;6.40;68.10;;;;;;5036928;28;46620;-64
2023/04/20 08:19:09;;;;;;;7.70;4.70;;;6.40;68.20;;;;;;5039389;28;46875;-66
2023/04/20 08:21:38;;;;;;;5.27;4.33;;;6.40;68.40;;;;;;5037006;28;46999;-65
2023/04/20 08:24:06;;;;;;;5.77;4.40;;;6.40;68.20;;;;;;5040763;28;46473;-65
2023/04/20 08:26:31;;;;;;;5.97;4.10;;;6.30;68.30;;;;;;5040160;28;46417;-66
2023/04/20 08:28:58;;;;;;;5.57;4.50;;;6.40;68.20;;;;;;5035280;28;45884;-66
2023/04/20 08:31:23;;;;;;;5.53;4.47;;;6.40;68.20;;;;;;5035419;28;46378;-66
2023/04/20 08:33:49;;;;;;;6.27;4.60;;;6.40;68.20;;;;;;5040278;28;46439;-66
2023/04/20 08:36:15;;;;;;;4.67;3.90;;;6.50;67.80;;;;;;5040719;28;46460;-66
2023/04/20 08:38:40;;;;;;;4.13;3.13;;;6.50;67.80;;;;;;5038743;28;45939;-65
2023/04/20 08:41:06;;;;;;;4.27;3.40;;;6.60;67.70;;;;;;5040027;28;46512;-64
2023/04/20 08:43:32;;;;;;;5.33;3.53;;;6.50;67.50;;;;;;5038559;28;46533;-63
2023/04/20 08:46:00;;;;;;;3.93;2.97;;;6.40;67.40;;;;;;5041960;28;45806;-64
2023/04/20 08:48:34;;;;;;;4.27;3.17;;;6.40;67.50;;;;;;5036230;28;46390;-64
2023/04/20 08:51:00;;;;;;;4.67;2.80;;;6.30;67.60;;;;;;5035908;28;47781;-65
2023/04/20 08:53:26;;;;;;;3.87;2.93;;;6.30;67.60;;;;;;5039071;28;46390;-65
2023/04/20 08:55:52;;;;;;;4.80;3.30;;;6.30;67.30;;;;;;5037163;28;46777;-64
2023/04/20 08:58:17;;;;;;;3.80;2.90;;;6.40;67.30;;;;;;5039862;28;46417;-65
2023/04/20 09:00:47;;;;;;;6.17;3.53;;;6.50;67.20;;;;;;5036756;28;46449;-64
2023/04/20 09:03:13;;;;;;;6.20;3.87;;;6.60;66.90;;;;;;5038243;28;46617;-64
2023/04/20 09:05:39;;;;;;;4.90;3.97;;;6.70;66.70;;;;;;5037622;28;46374;-65
2023/04/20 09:08:05;;;;;;;4.13;2.90;;;6.90;66.10;;;;;;5038265;28;46519;-64
2023/04/20 09:10:43;;;;;;;4.40;3.50;;;7.10;65.50;;;;;;5037663;28;46674;-66
2023/04/20 09:13:21;;;;;;;4.90;3.40;;;7.30;64.90;;;;;;5033662;28;46424;-67
2023/04/20 09:15:47;;;;;;;4.43;2.83;;;7.30;64.70;;;;;;5038438;28;46666;-66
2023/04/20 09:18:14;;;;;;;3.93;3.40;;;7.20;64.70;;;;;;5038051;28;46425;-65
2023/04/20 09:20:40;;;;;;;5.20;3.43;;;7.20;64.40;;;;;;5035886;28;47251;-67
2023/04/20 09:23:16;;;;;;;4.23;3.37;;;7.10;64.60;;;;;;5037836;28;46757;-67
2023/04/20 09:25:44;;;;;;;4.80;2.90;;;7.00;64.60;;;;;;5039126;28;46290;-65
2023/04/20 09:28:12;;;;;;;4.47;3.50;;;6.90;64.70;;;;;;5039591;28;46485;-67
2023/04/20 09:30:47;;;;;;;5.70;3.90;;;6.90;65.20;;;;;;5035102;28;46243;-66
2023/04/20 09:33:14;;;;;;;5.10;3.60;;;6.90;65.40;;;;;;5034559;28;46335;-65
2023/04/20 09:35:41;;;;;;;4.77;3.47;;;7.00;65.20;;;;;;5035600;28;46413;-66
2023/04/20 09:38:07;;;;;;;5.57;4.00;;;7.00;65.30;;;;;;5036295;28;46446;-69
2023/04/20 09:40:34;;;;;;;4.10;3.30;;;7.10;64.90;;;;;;5037431;28;46582;-66
2023/04/20 09:43:12;;;;;;;3.73;2.97;;;7.00;64.80;;;;;;5041290;28;45799;-64
2023/04/20 09:45:38;;;;;;;5.60;4.00;;;6.90;65.00;;;;;;5043230;28;46659;-69
2023/04/20 09:48:05;;;;;;;4.57;3.47;;;6.80;65.40;;;;;;5039496;28;45801;-66
2023/04/20 09:50:34;;;;;;;5.00;3.40;;;6.80;65.70;;;;;;5034773;28;46999;-65
2023/04/20 09:53:00;;;;;;;4.80;3.67;;;6.80;65.70;;;;;;5036867;28;46412;-66
2023/04/20 09:55:29;;;;;;;6.50;4.43;;;6.80;65.50;;;;;;5037826;28;46450;-65
2023/04/20 09:57:55;;;;;;;17.30;7.27;;;6.70;65.60;;;;;;5035908;28;46488;-65
2023/04/20 10:00:22;;;;;;;9.67;5.90;;;6.70;65.80;;;;;;5032321;28;46473;-64
2023/04/20 10:02:48;;;;;;;8.40;4.60;;;6.80;65.80;;;;;;5035055;28;46452;-65
2023/04/20 10:05:15;;;;;;;10.83;6.37;;;6.90;65.70;;;;;;5037834;28;46409;-67
2023/04/20 10:07:42;;;;;;;8.67;5.13;;;6.80;65.50;;;;;;5040336;28;45972;-65
2023/04/20 10:10:11;;;;;;;6.17;4.60;;;7.00;65.50;;;;;;5040881;28;47291;-66
2023/04/20 10:12:50;;;;;;;8.20;5.77;;;7.00;65.20;;;;;;5037973;28;46270;-68
2023/04/20 10:15:17;;;;;;;6.87;4.93;;;7.10;65.00;;;;;;5038776;28;46531;-67
2023/04/20 10:17:43;;;;;;;7.10;5.37;;;7.20;65.50;;;;;;5038039;28;46358;-66
2023/04/20 10:20:19;;;;;;;8.03;5.10;;;7.20;64.00;;;;;;5036714;28;46604;-66
2023/04/20 10:22:45;;;;;;;11.63;5.17;;;7.20;64.00;;;;;;5035431;28;45935;-66
2023/04/20 10:25:25;;;;;;;6.43;4.93;;;7.20;64.10;;;;;;5037396;28;45851;-66
2023/04/20 10:28:00;;;;;;;7.97;5.77;;;7.10;64.10;;;;;;5035946;28;46616;-69
2023/04/20 10:30:27;;;;;;;9.13;5.80;;;7.10;64.40;;;;;;5042208;28;46240;-64
2023/04/20 10:33:02;;;;;;;7.27;5.60;;;7.10;64.30;;;;;;5044843;28;45819;-67
2023/04/20 10:35:28;;;;;;;8.17;5.77;;;7.00;64.40;;;;;;5037003;28;46275;-65
2023/04/20 10:37:54;;;;;;;11.17;6.57;;;7.00;64.70;;;;;;5037070;28;45907;-67
2023/04/20 10:40:26;;;;;;;9.27;6.47;;;7.10;64.50;;;;;;5033731;28;47072;-66
2023/04/20 10:42:52;;;;;;;7.10;5.30;;;7.30;64.20;;;;;;5036328;28;46466;-67
2023/04/20 10:45:18;;;;;;;7.80;5.80;;;7.40;63.70;;;;;;5035768;28;45928;-66
2023/04/20 10:47:44;;;;;;;11.27;6.67;;;7.30;63.60;;;;;;5037205;28;46428;-66
2023/04/20 10:50:14;;;;;;;7.50;5.97;;;7.20;63.90;;;;;;5033783;28;46473;-65
2023/04/20 10:52:41;;;;;;;8.33;5.83;;;7.10;64.10;;;;;;5035876;28;46353;-65
2023/04/20 10:55:21;;;;;;;8.70;6.40;;;7.10;64.20;;;;;;5038786;28;46512;-66
2023/04/20 10:57:47;;;;;;;9.80;6.43;;;7.20;64.20;;;;;;5034079;28;45912;-67
2023/04/20 11:00:19;;;;;;;9.10;6.00;;;7.20;64.30;;;;;;5035879;28;46450;-66
2023/04/20 11:02:49;;;;;;;9.73;6.30;;;7.20;64.30;;;;;;5038221;28;46420;-65
2023/04/20 11:05:17;;;;;;;8.33;6.10;;;7.10;64.20;;;;;;5037598;28;46441;-65
2023/04/20 11:08:02;;;;;;;10.73;7.00;;;7.20;64.20;;;;;;5037417;28;46393;-66
2023/04/20 11:10:40;;;;;;;13.50;8.03;;;7.40;64.20;;;;;;5033429;28;47109;-66
2023/04/20 11:13:06;;;;;;;10.10;6.57;;;7.50;63.80;;;;;;5036299;28;46497;-66
2023/04/20 11:15:32;;;;;;;8.90;6.77;;;7.60;64.70;;;;;;5036165;28;46397;-66
2023/04/20 11:18:09;;;;;;;9.63;7.37;;;7.50;63.30;;;;;;5036744;28;46213;-65
2023/04/20 11:20:35;;;;;;;9.73;6.97;;;7.60;63.40;;;;;;5032077;28;47250;-67
2023/04/20 11:23:03;;;;;;;12.03;7.47;;;7.60;63.30;;;;;;5035746;28;45930;-64
2023/04/20 11:25:29;;;;;;;8.93;6.70;;;7.70;63.40;;;;;;5037267;28;46464;-67
2023/04/20 11:28:07;;;;;;;11.40;8.95;;;7.80;63.50;;;;;;5036467;28;46598;-62
2023/04/20 11:30:42;;;;;;;14.00;8.50;;;7.80;63.50;;;;;;5036322;28;46326;-64
2023/04/20 11:33:08;;;;;;;10.23;7.77;;;7.80;63.50;;;;;;5038185;28;45772;-63
2023/04/20 11:35:38;;;;;;;11.17;7.17;;;7.80;63.60;;;;;;5032153;28;46142;-64
2023/04/20 11:38:04;;;;;;;11.53;7.13;;;7.70;63.40;;;;;;5034626;28;45946;-65
2023/04/20 11:40:30;;;;;;;9.50;7.33;;;7.70;63.40;;;;;;5032386;28;46855;-64
2023/04/20 11:42:57;;;;;;;13.03;7.70;;;7.70;63.50;;;;;;5034716;28;46413;-63
2023/04/20 11:45:23;;;;;;;10.30;7.17;;;7.80;63.50;;;;;;5036673;28;46051;-65
2023/04/20 11:47:49;;;;;;;11.33;7.20;;;7.90;63.10;;;;;;5040416;28;46633;-66
2023/04/20 11:50:15;;;;;;;10.43;6.53;;;8.00;62.30;;;;;;5038051;28;46698;-64
2023/04/20 11:52:40;;;;;;;7.73;6.27;;;8.00;61.80;;;;;;5037426;28;45973;-65
2023/04/20 11:55:06;;;;;;;9.57;7.10;;;8.20;61.40;;;;;;5038132;28;45796;-66
2023/04/20 11:57:33;;;;;;;10.07;7.60;;;8.40;61.00;;;;;;5033230;28;45928;-68
2023/04/20 11:59:59;;;;;;;9.83;7.70;;;8.60;60.50;;;;;;5035043;28;47480;-66
2023/04/20 12:02:25;;;;;;;12.77;7.80;;;8.70;59.50;;;;;;5034798;28;46366;-65
2023/04/20 12:04:51;;;;;;;11.47;7.13;;;8.70;59.70;;;;;;5040979;28;46387;-65
2023/04/20 12:07:16;;;;;;;10.80;8.67;;;8.60;59.40;;;;;;5041893;28;46406;-65
2023/04/20 12:09:43;;;;;;;13.60;8.30;;;8.50;59.80;;;;;;5038389;28;46323;-65
2023/04/20 12:12:09;;;;;;;10.70;8.60;;;8.50;59.80;;;;;;5040054;28;46405;-66
2023/04/20 12:14:35;;;;;;;12.37;8.27;;;8.70;58.90;;;;;;5040616;28;46397;-65
2023/04/20 12:17:02;;;;;;;12.03;7.70;;;8.60;59.20;;;;;;5039458;28;46445;-66
2023/04/20 12:19:28;;;;;;;11.03;8.63;;;8.70;58.90;;;;;;5038722;28;46687;-66
2023/04/20 12:21:54;;;;;;;9.73;8.10;;;8.70;58.90;;;;;;5040266;28;46390;-66
2023/04/20 12:24:20;;;;;;;13.23;8.27;;;8.80;58.70;;;;;;5039779;28;45867;-66
2023/04/20 12:26:45;;;;;;;11.33;7.40;;;9.00;58.30;;;;;;5043049;28;46634;-65
2023/04/20 12:29:11;;;;;;;8.97;7.27;;;8.90;57.70;;;;;;5044907;28;47053;-67
2023/04/20 12:31:37;;;;;;;12.30;7.20;;;8.80;58.00;;;;;;5037479;28;45803;-67
2023/04/20 12:34:03;;;;;;;9.90;7.23;;;8.70;57.70;;;;;;5040672;28;46499;-66
2023/04/20 12:36:28;;;;;;;12.73;8.47;;;8.60;57.80;;;;;;5037483;28;45973;-67
2023/04/20 12:38:54;;;;;;;10.47;7.70;;;8.50;58.40;;;;;;5036894;28;47066;-71
2023/04/20 12:41:23;;;;;;;11.50;8.20;;;8.50;58.40;;;;;;5038991;28;45806;-71